Unicom:                    122.8

AWOS:                  118.275

Elevation           1458’ MSL

TPA:                   2500’ MSL

06/24:         5003’ L   75’ W

PAPI:       06/Left     24/Left

(Operate lights on unicom freq.)

Traffic Pattern: Left

Beacon: Sunset to Sunrise

Windsock: yes, lighted

Segmented Circle: No

 

Cleveland Center: 126.72/291.65

FSS: Altoona

[Source: ADDS]
METAR
KFKL 271714Z AUTO 25007KT 8SM OVC003 05/04 A3003 RMK AO2 =
KFKL 271720Z 2718/2818 25008KT P6SM BKN007 FM272200 28006KT P6SM BKN025 FM280500 10003KT P6SM BKN200 FM281200 13009KT 6SM RA OVC025 FM281600 15009KT 4SM RA OVC007
TAF
KFKL 271720Z 2718/2818 25008KT P6SM BKN007 FM272200 28006KT P6SM BKN025 FM280500 10003KT P6SM BKN200 FM281200 13009KT 6SM RA OVC025 FM281600 15009KT 4SM RA OVC007 =
[Source: ADDS]
METAR
KDUJ 271653Z AUTO 19004KT 9SM OVC003 03/02 A3000 RMK AO2 SLP173 P0001 T00330022 =
KDUJ 271720Z 2718/2818 24008G16KT P6SM VCSH BKN007 FM272000 27009KT P6SM BKN006 FM281000 11007KT P6SM VCSH OVC040 FM281200 12009KT 5SM RA OVC015 FM281700 15010KT 5SM RA OVC005
TAF
KDUJ 271720Z 2718/2818 24008G16KT P6SM VCSH BKN007 FM272000 27009KT P6SM BKN006 FM281000 11007KT P6SM VCSH OVC040 FM281200 12009KT 5SM RA OVC015 FM281700 15010KT 5SM RA OVC005 =

Development areas as listed in the Pennsylvania Department of Transportation,

Bureau of Aviation Airport Properties Directory

 

Area 1 - 7 acre area for development needing access to runway 

Area 2 - 7 acre area for development not needing access to runway

There are several other Industrial Development areas available on the airport, and at other sites with easy access to the airport.

Please contact the Clarion County Airport Authority at (814) 226 - 9993, or manager@clarionairport.com

You can also contact the Clarion County Economic Development Corporation at (814) 226 - 9045.

 

Resourceful Links:

Clarion Chamber of Commerce https://www.clarionpa.com/

Clarion County Economic Development Corporation http://www.callclarionpa.com/